sensor_id;sensor_type;location;lat;lon;timestamp;P1;durP1;ratioP1;P2;durP2;ratioP2
7997;SDS011;4044;49.814;7.828;2024-03-25T00:01:30;3.93;;;2.20;;
7997;SDS011;4044;49.814;7.828;2024-03-25T00:03:55;3.30;;;2.50;;
7997;SDS011;4044;49.814;7.828;2024-03-25T00:06:21;6.70;;;2.60;;
7997;SDS011;4044;49.814;7.828;2024-03-25T00:08:46;4.23;;;2.30;;
7997;SDS011;4044;49.814;7.828;2024-03-25T00:11:12;2.80;;;2.17;;
7997;SDS011;4044;49.814;7.828;2024-03-25T00:13:37;3.50;;;2.20;;
7997;SDS011;4044;49.814;7.828;2024-03-25T00:16:03;3.13;;;2.43;;
7997;SDS011;4044;49.814;7.828;2024-03-25T00:18:30;3.43;;;1.90;;
7997;SDS011;4044;49.814;7.828;2024-03-25T00:20:56;3.30;;;2.10;;
7997;SDS011;4044;49.814;7.828;2024-03-25T00:23:22;3.60;;;1.90;;
7997;SDS011;4044;49.814;7.828;2024-03-25T00:25:47;4.10;;;2.03;;
7997;SDS011;4044;49.814;7.828;2024-03-25T00:28:13;3.10;;;2.27;;
7997;SDS011;4044;49.814;7.828;2024-03-25T00:30:39;3.40;;;2.10;;
7997;SDS011;4044;49.814;7.828;2024-03-25T00:33:05;4.53;;;1.77;;
7997;SDS011;4044;49.814;7.828;2024-03-25T00:35:31;4.13;;;1.70;;
7997;SDS011;4044;49.814;7.828;2024-03-25T00:37:57;2.10;;;1.90;;
7997;SDS011;4044;49.814;7.828;2024-03-25T00:40:23;6.93;;;2.47;;
7997;SDS011;4044;49.814;7.828;2024-03-25T00:42:49;4.33;;;2.10;;
7997;SDS011;4044;49.814;7.828;2024-03-25T00:45:15;3.73;;;2.20;;
7997;SDS011;4044;49.814;7.828;2024-03-25T00:47:41;3.30;;;2.20;;
7997;SDS011;4044;49.814;7.828;2024-03-25T00:50:07;3.37;;;2.03;;
7997;SDS011;4044;49.814;7.828;2024-03-25T00:52:34;4.87;;;1.97;;
7997;SDS011;4044;49.814;7.828;2024-03-25T00:54:59;3.20;;;2.00;;
7997;SDS011;4044;49.814;7.828;2024-03-25T00:57:25;3.67;;;2.43;;
7997;SDS011;4044;49.814;7.828;2024-03-25T00:59:51;4.17;;;1.80;;
7997;SDS011;4044;49.814;7.828;2024-03-25T01:02:16;3.20;;;2.00;;
7997;SDS011;4044;49.814;7.828;2024-03-25T01:04:42;4.37;;;2.50;;
7997;SDS011;4044;49.814;7.828;2024-03-25T01:07:08;2.37;;;1.90;;
7997;SDS011;4044;49.814;7.828;2024-03-25T01:09:33;3.40;;;2.07;;
7997;SDS011;4044;49.814;7.828;2024-03-25T01:11:59;4.83;;;2.10;;
7997;SDS011;4044;49.814;7.828;2024-03-25T01:14:25;2.77;;;1.83;;
7997;SDS011;4044;49.814;7.828;2024-03-25T01:16:51;2.70;;;2.13;;
7997;SDS011;4044;49.814;7.828;2024-03-25T01:19:16;2.57;;;1.90;;
7997;SDS011;4044;49.814;7.828;2024-03-25T01:21:42;3.07;;;1.87;;
7997;SDS011;4044;49.814;7.828;2024-03-25T01:24:07;2.97;;;2.10;;
7997;SDS011;4044;49.814;7.828;2024-03-25T01:26:33;2.80;;;2.10;;
7997;SDS011;4044;49.814;7.828;2024-03-25T01:28:58;5.53;;;2.10;;
7997;SDS011;4044;49.814;7.828;2024-03-25T01:31:24;2.60;;;1.90;;
7997;SDS011;4044;49.814;7.828;2024-03-25T01:33:49;2.30;;;1.70;;
7997;SDS011;4044;49.814;7.828;2024-03-25T01:36:16;4.23;;;2.00;;
7997;SDS011;4044;49.814;7.828;2024-03-25T01:38:43;4.77;;;1.90;;
7997;SDS011;4044;49.814;7.828;2024-03-25T01:41:09;5.03;;;2.00;;
7997;SDS011;4044;49.814;7.828;2024-03-25T01:43:36;2.10;;;1.90;;
7997;SDS011;4044;49.814;7.828;2024-03-25T01:46:02;3.07;;;2.07;;
7997;SDS011;4044;49.814;7.828;2024-03-25T01:48:28;4.37;;;2.10;;
7997;SDS011;4044;49.814;7.828;2024-03-25T01:50:54;6.07;;;2.40;;
7997;SDS011;4044;49.814;7.828;2024-03-25T01:53:21;2.57;;;2.37;;
7997;SDS011;4044;49.814;7.828;2024-03-25T01:55:47;3.70;;;2.27;;
7997;SDS011;4044;49.814;7.828;2024-03-25T01:58:13;5.40;;;2.20;;
7997;SDS011;4044;49.814;7.828;2024-03-25T02:00:40;2.63;;;2.17;;
7997;SDS011;4044;49.814;7.828;2024-03-25T02:03:06;4.87;;;2.60;;
7997;SDS011;4044;49.814;7.828;2024-03-25T02:05:32;3.73;;;2.20;;
7997;SDS011;4044;49.814;7.828;2024-03-25T02:07:59;4.30;;;2.10;;
7997;SDS011;4044;49.814;7.828;2024-03-25T02:10:25;6.07;;;2.30;;
7997;SDS011;4044;49.814;7.828;2024-03-25T02:12:50;5.53;;;2.53;;
7997;SDS011;4044;49.814;7.828;2024-03-25T02:15:16;5.23;;;2.80;;
7997;SDS011;4044;49.814;7.828;2024-03-25T02:17:43;5.40;;;2.47;;
7997;SDS011;4044;49.814;7.828;2024-03-25T02:20:09;6.10;;;2.50;;
7997;SDS011;4044;49.814;7.828;2024-03-25T02:22:35;4.53;;;2.40;;
7997;SDS011;4044;49.814;7.828;2024-03-25T02:25:03;3.47;;;2.50;;
7997;SDS011;4044;49.814;7.828;2024-03-25T02:27:31;4.40;;;2.30;;
7997;SDS011;4044;49.814;7.828;2024-03-25T02:30:04;5.80;;;2.37;;
7997;SDS011;4044;49.814;7.828;2024-03-25T02:32:34;3.77;;;2.50;;
7997;SDS011;4044;49.814;7.828;2024-03-25T02:35:00;4.57;;;2.13;;
7997;SDS011;4044;49.814;7.828;2024-03-25T02:37:31;3.90;;;2.77;;
7997;SDS011;4044;49.814;7.828;2024-03-25T02:39:58;5.20;;;2.53;;
7997;SDS011;4044;49.814;7.828;2024-03-25T02:42:25;4.03;;;2.33;;
7997;SDS011;4044;49.814;7.828;2024-03-25T02:44:52;4.40;;;2.73;;
7997;SDS011;4044;49.814;7.828;2024-03-25T02:47:19;4.37;;;2.70;;
7997;SDS011;4044;49.814;7.828;2024-03-25T02:49:45;9.80;;;3.10;;
7997;SDS011;4044;49.814;7.828;2024-03-25T02:52:10;8.23;;;3.00;;
7997;SDS011;4044;49.814;7.828;2024-03-25T02:54:36;3.87;;;2.70;;
7997;SDS011;4044;49.814;7.828;2024-03-25T02:57:01;4.83;;;2.90;;
7997;SDS011;4044;49.814;7.828;2024-03-25T02:59:27;4.07;;;3.00;;
7997;SDS011;4044;49.814;7.828;2024-03-25T03:01:52;6.30;;;3.10;;
7997;SDS011;4044;49.814;7.828;2024-03-25T03:04:18;4.73;;;2.60;;
7997;SDS011;4044;49.814;7.828;2024-03-25T03:06:43;5.57;;;2.67;;
7997;SDS011;4044;49.814;7.828;2024-03-25T03:09:09;7.33;;;3.27;;
7997;SDS011;4044;49.814;7.828;2024-03-25T03:11:35;7.67;;;2.57;;
7997;SDS011;4044;49.814;7.828;2024-03-25T03:14:00;5.20;;;3.00;;
7997;SDS011;4044;49.814;7.828;2024-03-25T03:16:26;5.70;;;3.30;;
7997;SDS011;4044;49.814;7.828;2024-03-25T03:18:52;3.47;;;2.80;;
7997;SDS011;4044;49.814;7.828;2024-03-25T03:21:17;5.20;;;2.73;;
7997;SDS011;4044;49.814;7.828;2024-03-25T03:23:42;4.53;;;2.60;;
7997;SDS011;4044;49.814;7.828;2024-03-25T03:26:08;4.13;;;2.80;;
7997;SDS011;4044;49.814;7.828;2024-03-25T03:28:33;6.57;;;2.97;;
7997;SDS011;4044;49.814;7.828;2024-03-25T03:30:59;6.30;;;2.73;;
7997;SDS011;4044;49.814;7.828;2024-03-25T03:33:24;4.37;;;3.10;;
7997;SDS011;4044;49.814;7.828;2024-03-25T03:35:51;5.97;;;3.33;;
7997;SDS011;4044;49.814;7.828;2024-03-25T03:38:17;5.77;;;3.10;;
7997;SDS011;4044;49.814;7.828;2024-03-25T03:40:42;6.33;;;2.90;;
7997;SDS011;4044;49.814;7.828;2024-03-25T03:43:09;5.87;;;3.03;;
7997;SDS011;4044;49.814;7.828;2024-03-25T03:45:34;8.63;;;3.20;;
7997;SDS011;4044;49.814;7.828;2024-03-25T03:48:00;5.77;;;2.70;;
7997;SDS011;4044;49.814;7.828;2024-03-25T03:50:26;4.33;;;3.07;;
7997;SDS011;4044;49.814;7.828;2024-03-25T03:52:52;6.23;;;3.07;;
7997;SDS011;4044;49.814;7.828;2024-03-25T03:55:17;4.97;;;3.00;;
7997;SDS011;4044;49.814;7.828;2024-03-25T03:57:44;6.37;;;3.30;;
7997;SDS011;4044;49.814;7.828;2024-03-25T04:00:10;7.97;;;3.10;;
7997;SDS011;4044;49.814;7.828;2024-03-25T04:02:39;6.10;;;3.03;;
7997;SDS011;4044;49.814;7.828;2024-03-25T04:05:04;7.00;;;3.10;;
7997;SDS011;4044;49.814;7.828;2024-03-25T04:07:31;3.30;;;2.70;;
7997;SDS011;4044;49.814;7.828;2024-03-25T04:09:57;6.57;;;2.73;;
7997;SDS011;4044;49.814;7.828;2024-03-25T04:12:24;6.77;;;3.53;;
7997;SDS011;4044;49.814;7.828;2024-03-25T04:14:49;5.87;;;2.77;;
7997;SDS011;4044;49.814;7.828;2024-03-25T04:17:19;5.07;;;3.00;;
7997;SDS011;4044;49.814;7.828;2024-03-25T04:19:46;5.03;;;3.53;;
7997;SDS011;4044;49.814;7.828;2024-03-25T04:22:12;5.47;;;3.33;;
7997;SDS011;4044;49.814;7.828;2024-03-25T04:24:37;5.40;;;3.17;;
7997;SDS011;4044;49.814;7.828;2024-03-25T04:27:03;7.77;;;3.33;;
7997;SDS011;4044;49.814;7.828;2024-03-25T04:29:28;3.80;;;2.90;;
7997;SDS011;4044;49.814;7.828;2024-03-25T04:31:54;4.00;;;3.33;;
7997;SDS011;4044;49.814;7.828;2024-03-25T04:34:20;7.47;;;3.10;;
7997;SDS011;4044;49.814;7.828;2024-03-25T04:36:45;6.03;;;3.23;;
7997;SDS011;4044;49.814;7.828;2024-03-25T04:39:11;7.43;;;3.37;;
7997;SDS011;4044;49.814;7.828;2024-03-25T04:41:36;4.63;;;3.33;;
7997;SDS011;4044;49.814;7.828;2024-03-25T04:44:02;6.53;;;3.43;;
7997;SDS011;4044;49.814;7.828;2024-03-25T04:46:27;5.50;;;3.27;;
7997;SDS011;4044;49.814;7.828;2024-03-25T04:48:53;7.30;;;3.80;;
7997;SDS011;4044;49.814;7.828;2024-03-25T04:51:18;6.93;;;3.63;;
7997;SDS011;4044;49.814;7.828;2024-03-25T04:53:44;7.33;;;3.97;;
7997;SDS011;4044;49.814;7.828;2024-03-25T04:56:10;5.63;;;3.60;;
7997;SDS011;4044;49.814;7.828;2024-03-25T04:58:35;6.87;;;3.33;;
7997;SDS011;4044;49.814;7.828;2024-03-25T05:01:01;5.87;;;3.77;;
7997;SDS011;4044;49.814;7.828;2024-03-25T05:03:26;8.30;;;3.67;;
7997;SDS011;4044;49.814;7.828;2024-03-25T05:05:52;4.97;;;3.30;;
7997;SDS011;4044;49.814;7.828;2024-03-25T05:08:17;4.30;;;3.40;;
7997;SDS011;4044;49.814;7.828;2024-03-25T05:10:43;3.93;;;3.20;;
7997;SDS011;4044;49.814;7.828;2024-03-25T05:13:08;6.73;;;3.67;;
7997;SDS011;4044;49.814;7.828;2024-03-25T05:15:34;5.93;;;3.30;;
7997;SDS011;4044;49.814;7.828;2024-03-25T05:17:59;5.60;;;3.30;;
7997;SDS011;4044;49.814;7.828;2024-03-25T05:20:25;6.50;;;3.03;;
7997;SDS011;4044;49.814;7.828;2024-03-25T05:22:51;6.63;;;3.67;;
7997;SDS011;4044;49.814;7.828;2024-03-25T05:25:17;6.00;;;3.80;;
7997;SDS011;4044;49.814;7.828;2024-03-25T05:27:42;7.87;;;3.83;;
7997;SDS011;4044;49.814;7.828;2024-03-25T05:30:08;6.37;;;3.70;;
7997;SDS011;4044;49.814;7.828;2024-03-25T05:32:34;4.17;;;3.60;;
7997;SDS011;4044;49.814;7.828;2024-03-25T05:34:59;6.97;;;3.47;;
7997;SDS011;4044;49.814;7.828;2024-03-25T05:37:25;5.63;;;3.30;;
7997;SDS011;4044;49.814;7.828;2024-03-25T05:39:50;6.30;;;3.80;;
7997;SDS011;4044;49.814;7.828;2024-03-25T05:42:16;7.93;;;3.73;;
7997;SDS011;4044;49.814;7.828;2024-03-25T05:44:41;6.17;;;3.67;;
7997;SDS011;4044;49.814;7.828;2024-03-25T05:47:09;7.37;;;3.50;;
7997;SDS011;4044;49.814;7.828;2024-03-25T05:49:35;10.17;;;3.63;;
7997;SDS011;4044;49.814;7.828;2024-03-25T05:52:00;4.40;;;3.23;;
7997;SDS011;4044;49.814;7.828;2024-03-25T05:54:27;5.87;;;3.03;;
7997;SDS011;4044;49.814;7.828;2024-03-25T05:56:52;7.63;;;3.47;;
7997;SDS011;4044;49.814;7.828;2024-03-25T05:59:18;7.37;;;4.10;;
7997;SDS011;4044;49.814;7.828;2024-03-25T06:01:43;5.27;;;3.73;;
7997;SDS011;4044;49.814;7.828;2024-03-25T06:04:09;6.97;;;4.40;;
7997;SDS011;4044;49.814;7.828;2024-03-25T06:06:34;6.73;;;4.60;;
7997;SDS011;4044;49.814;7.828;2024-03-25T06:09:00;9.17;;;5.13;;
7997;SDS011;4044;49.814;7.828;2024-03-25T06:11:26;6.97;;;5.00;;
7997;SDS011;4044;49.814;7.828;2024-03-25T06:13:51;7.50;;;5.07;;
7997;SDS011;4044;49.814;7.828;2024-03-25T06:16:17;5.83;;;4.33;;
7997;SDS011;4044;49.814;7.828;2024-03-25T06:18:42;7.83;;;4.97;;
7997;SDS011;4044;49.814;7.828;2024-03-25T06:21:08;7.77;;;5.40;;
7997;SDS011;4044;49.814;7.828;2024-03-25T06:23:33;9.70;;;5.07;;
7997;SDS011;4044;49.814;7.828;2024-03-25T06:25:59;8.47;;;5.40;;
7997;SDS011;4044;49.814;7.828;2024-03-25T06:28:24;9.13;;;5.40;;
7997;SDS011;4044;49.814;7.828;2024-03-25T06:30:50;7.87;;;5.00;;
7997;SDS011;4044;49.814;7.828;2024-03-25T06:33:35;8.70;;;5.40;;
7997;SDS011;4044;49.814;7.828;2024-03-25T06:36:20;9.57;;;5.63;;
7997;SDS011;4044;49.814;7.828;2024-03-25T06:38:46;8.13;;;5.57;;
7997;SDS011;4044;49.814;7.828;2024-03-25T06:41:12;10.07;;;6.27;;
7997;SDS011;4044;49.814;7.828;2024-03-25T06:43:38;9.50;;;7.00;;
7997;SDS011;4044;49.814;7.828;2024-03-25T06:46:04;10.17;;;6.07;;
7997;SDS011;4044;49.814;7.828;2024-03-25T06:48:30;8.37;;;6.10;;
7997;SDS011;4044;49.814;7.828;2024-03-25T06:50:56;7.23;;;6.47;;
7997;SDS011;4044;49.814;7.828;2024-03-25T06:53:23;8.83;;;5.90;;
7997;SDS011;4044;49.814;7.828;2024-03-25T06:55:55;9.37;;;6.10;;
7997;SDS011;4044;49.814;7.828;2024-03-25T06:58:23;9.27;;;6.33;;
7997;SDS011;4044;49.814;7.828;2024-03-25T07:00:49;7.60;;;5.70;;
7997;SDS011;4044;49.814;7.828;2024-03-25T07:03:19;8.57;;;5.60;;
7997;SDS011;4044;49.814;7.828;2024-03-25T07:05:46;8.73;;;5.43;;
7997;SDS011;4044;49.814;7.828;2024-03-25T07:08:12;7.67;;;5.30;;
7997;SDS011;4044;49.814;7.828;2024-03-25T07:10:38;9.23;;;4.73;;
7997;SDS011;4044;49.814;7.828;2024-03-25T07:13:06;10.20;;;7.00;;
7997;SDS011;4044;49.814;7.828;2024-03-25T07:15:32;10.77;;;6.97;;
7997;SDS011;4044;49.814;7.828;2024-03-25T07:17:58;10.73;;;5.33;;
7997;SDS011;4044;49.814;7.828;2024-03-25T07:20:25;6.30;;;4.23;;
7997;SDS011;4044;49.814;7.828;2024-03-25T07:22:51;6.27;;;4.23;;
7997;SDS011;4044;49.814;7.828;2024-03-25T07:25:19;7.33;;;4.40;;
7997;SDS011;4044;49.814;7.828;2024-03-25T07:27:45;6.53;;;3.90;;
7997;SDS011;4044;49.814;7.828;2024-03-25T07:30:10;5.43;;;3.93;;
7997;SDS011;4044;49.814;7.828;2024-03-25T07:32:36;7.23;;;3.93;;
7997;SDS011;4044;49.814;7.828;2024-03-25T07:35:02;5.87;;;4.00;;
7997;SDS011;4044;49.814;7.828;2024-03-25T07:37:29;7.43;;;4.60;;
7997;SDS011;4044;49.814;7.828;2024-03-25T07:39:55;6.57;;;4.20;;
7997;SDS011;4044;49.814;7.828;2024-03-25T07:42:21;7.10;;;4.10;;
7997;SDS011;4044;49.814;7.828;2024-03-25T07:44:46;5.57;;;3.97;;
7997;SDS011;4044;49.814;7.828;2024-03-25T07:47:12;9.63;;;3.87;;
7997;SDS011;4044;49.814;7.828;2024-03-25T07:49:37;11.13;;;3.83;;
7997;SDS011;4044;49.814;7.828;2024-03-25T07:52:04;5.77;;;3.80;;
7997;SDS011;4044;49.814;7.828;2024-03-25T07:54:33;5.87;;;3.00;;
7997;SDS011;4044;49.814;7.828;2024-03-25T07:56:58;5.30;;;3.67;;
7997;SDS011;4044;49.814;7.828;2024-03-25T07:59:24;6.10;;;3.60;;
7997;SDS011;4044;49.814;7.828;2024-03-25T08:01:49;8.07;;;3.33;;
7997;SDS011;4044;49.814;7.828;2024-03-25T08:04:15;6.67;;;3.80;;
7997;SDS011;4044;49.814;7.828;2024-03-25T08:06:41;7.63;;;3.67;;
7997;SDS011;4044;49.814;7.828;2024-03-25T08:09:06;4.03;;;3.47;;
7997;SDS011;4044;49.814;7.828;2024-03-25T08:11:32;3.90;;;3.27;;
7997;SDS011;4044;49.814;7.828;2024-03-25T08:13:58;5.33;;;3.53;;
7997;SDS011;4044;49.814;7.828;2024-03-25T08:16:23;5.17;;;3.43;;
7997;SDS011;4044;49.814;7.828;2024-03-25T08:18:49;5.67;;;3.57;;
7997;SDS011;4044;49.814;7.828;2024-03-25T08:21:15;3.53;;;3.20;;
7997;SDS011;4044;49.814;7.828;2024-03-25T08:23:41;9.90;;;3.37;;
7997;SDS011;4044;49.814;7.828;2024-03-25T08:26:09;5.47;;;3.37;;
7997;SDS011;4044;49.814;7.828;2024-03-25T08:28:34;6.20;;;3.40;;
7997;SDS011;4044;49.814;7.828;2024-03-25T08:31:00;7.37;;;3.67;;
7997;SDS011;4044;49.814;7.828;2024-03-25T08:33:25;5.60;;;3.50;;
7997;SDS011;4044;49.814;7.828;2024-03-25T08:35:51;4.87;;;3.13;;
7997;SDS011;4044;49.814;7.828;2024-03-25T08:38:16;6.03;;;3.93;;
7997;SDS011;4044;49.814;7.828;2024-03-25T08:40:42;5.53;;;3.27;;
7997;SDS011;4044;49.814;7.828;2024-03-25T08:43:07;4.27;;;3.30;;
7997;SDS011;4044;49.814;7.828;2024-03-25T08:45:33;5.87;;;3.37;;
7997;SDS011;4044;49.814;7.828;2024-03-25T08:47:58;4.13;;;3.07;;
7997;SDS011;4044;49.814;7.828;2024-03-25T08:50:24;4.73;;;3.20;;
7997;SDS011;4044;49.814;7.828;2024-03-25T08:52:49;4.97;;;3.63;;
7997;SDS011;4044;49.814;7.828;2024-03-25T08:55:15;5.77;;;3.47;;
7997;SDS011;4044;49.814;7.828;2024-03-25T08:57:40;7.40;;;3.87;;
7997;SDS011;4044;49.814;7.828;2024-03-25T09:00:06;7.00;;;3.40;;
7997;SDS011;4044;49.814;7.828;2024-03-25T09:02:35;6.27;;;3.30;;
7997;SDS011;4044;49.814;7.828;2024-03-25T09:05:01;6.13;;;3.20;;
7997;SDS011;4044;49.814;7.828;2024-03-25T09:07:30;5.17;;;2.40;;
7997;SDS011;4044;49.814;7.828;2024-03-25T09:09:56;4.17;;;2.30;;
7997;SDS011;4044;49.814;7.828;2024-03-25T09:12:41;4.97;;;2.60;;
7997;SDS011;4044;49.814;7.828;2024-03-25T09:15:06;5.13;;;2.60;;
7997;SDS011;4044;49.814;7.828;2024-03-25T09:17:32;5.60;;;2.80;;
7997;SDS011;4044;49.814;7.828;2024-03-25T09:19:57;3.97;;;2.87;;
7997;SDS011;4044;49.814;7.828;2024-03-25T09:22:23;6.60;;;3.10;;
7997;SDS011;4044;49.814;7.828;2024-03-25T09:24:48;4.83;;;2.97;;
7997;SDS011;4044;49.814;7.828;2024-03-25T09:27:14;4.20;;;3.17;;
7997;SDS011;4044;49.814;7.828;2024-03-25T09:29:41;3.73;;;2.47;;
7997;SDS011;4044;49.814;7.828;2024-03-25T09:32:07;5.30;;;2.60;;
7997;SDS011;4044;49.814;7.828;2024-03-25T09:34:32;6.67;;;3.00;;
7997;SDS011;4044;49.814;7.828;2024-03-25T09:36:58;4.30;;;2.77;;
7997;SDS011;4044;49.814;7.828;2024-03-25T09:39:23;3.93;;;2.27;;
7997;SDS011;4044;49.814;7.828;2024-03-25T09:41:49;4.47;;;1.90;;
7997;SDS011;4044;49.814;7.828;2024-03-25T09:44:17;4.47;;;1.90;;
7997;SDS011;4044;49.814;7.828;2024-03-25T09:46:46;3.70;;;1.60;;
7997;SDS011;4044;49.814;7.828;2024-03-25T09:49:11;6.53;;;1.93;;
7997;SDS011;4044;49.814;7.828;2024-03-25T09:51:37;3.63;;;1.73;;
7997;SDS011;4044;49.814;7.828;2024-03-25T09:54:03;4.00;;;2.00;;
7997;SDS011;4044;49.814;7.828;2024-03-25T09:56:29;6.07;;;1.93;;
7997;SDS011;4044;49.814;7.828;2024-03-25T09:58:55;3.63;;;1.83;;
7997;SDS011;4044;49.814;7.828;2024-03-25T10:01:21;4.20;;;2.07;;
7997;SDS011;4044;49.814;7.828;2024-03-25T10:03:47;3.53;;;2.37;;
7997;SDS011;4044;49.814;7.828;2024-03-25T10:06:12;5.50;;;2.60;;
7997;SDS011;4044;49.814;7.828;2024-03-25T10:08:38;4.63;;;2.40;;
7997;SDS011;4044;49.814;7.828;2024-03-25T10:11:03;4.20;;;2.60;;
7997;SDS011;4044;49.814;7.828;2024-03-25T10:13:29;4.63;;;2.27;;
7997;SDS011;4044;49.814;7.828;2024-03-25T10:15:54;3.40;;;2.30;;
7997;SDS011;4044;49.814;7.828;2024-03-25T10:18:20;4.47;;;2.60;;
7997;SDS011;4044;49.814;7.828;2024-03-25T10:20:49;5.73;;;3.20;;
7997;SDS011;4044;49.814;7.828;2024-03-25T10:23:15;3.50;;;2.80;;
7997;SDS011;4044;49.814;7.828;2024-03-25T10:25:44;7.80;;;2.93;;
7997;SDS011;4044;49.814;7.828;2024-03-25T10:28:13;6.90;;;2.93;;
7997;SDS011;4044;49.814;7.828;2024-03-25T10:30:38;5.00;;;2.60;;
7997;SDS011;4044;49.814;7.828;2024-03-25T10:33:06;4.50;;;2.70;;
7997;SDS011;4044;49.814;7.828;2024-03-25T10:35:33;5.57;;;2.87;;
7997;SDS011;4044;49.814;7.828;2024-03-25T10:38:03;4.80;;;2.80;;
7997;SDS011;4044;49.814;7.828;2024-03-25T10:40:33;3.13;;;2.57;;
7997;SDS011;4044;49.814;7.828;2024-03-25T10:43:07;4.33;;;2.50;;
7997;SDS011;4044;49.814;7.828;2024-03-25T10:45:34;4.90;;;2.63;;
7997;SDS011;4044;49.814;7.828;2024-03-25T10:48:03;3.93;;;2.30;;
7997;SDS011;4044;49.814;7.828;2024-03-25T10:50:39;4.17;;;2.63;;
7997;SDS011;4044;49.814;7.828;2024-03-25T10:53:07;3.67;;;2.50;;
7997;SDS011;4044;49.814;7.828;2024-03-25T10:55:35;2.60;;;2.40;;
7997;SDS011;4044;49.814;7.828;2024-03-25T10:58:02;5.57;;;3.00;;
7997;SDS011;4044;49.814;7.828;2024-03-25T11:00:29;3.87;;;2.40;;
7997;SDS011;4044;49.814;7.828;2024-03-25T11:02:55;6.57;;;2.73;;
7997;SDS011;4044;49.814;7.828;2024-03-25T11:05:21;6.20;;;2.80;;
7997;SDS011;4044;49.814;7.828;2024-03-25T11:07:47;8.67;;;3.10;;
7997;SDS011;4044;49.814;7.828;2024-03-25T11:10:13;5.40;;;2.63;;
7997;SDS011;4044;49.814;7.828;2024-03-25T11:12:40;4.87;;;2.33;;
7997;SDS011;4044;49.814;7.828;2024-03-25T11:15:10;4.03;;;2.43;;
7997;SDS011;4044;49.814;7.828;2024-03-25T11:17:36;4.17;;;2.30;;
7997;SDS011;4044;49.814;7.828;2024-03-25T11:20:13;3.87;;;1.97;;
7997;SDS011;4044;49.814;7.828;2024-03-25T11:22:47;4.55;;;2.75;;
7997;SDS011;4044;49.814;7.828;2024-03-25T11:25:16;4.10;;;2.00;;
7997;SDS011;4044;49.814;7.828;2024-03-25T11:27:43;3.30;;;1.90;;
7997;SDS011;4044;49.814;7.828;2024-03-25T11:30:13;4.25;;;2.15;;
7997;SDS011;4044;49.814;7.828;2024-03-25T11:32:52;3.10;;;2.30;;
7997;SDS011;4044;49.814;7.828;2024-03-25T11:35:19;4.97;;;2.40;;
7997;SDS011;4044;49.814;7.828;2024-03-25T11:37:45;2.80;;;1.95;;
7997;SDS011;4044;49.814;7.828;2024-03-25T11:40:11;2.20;;;1.98;;
7997;SDS011;4044;49.814;7.828;2024-03-25T11:42:39;2.90;;;2.15;;
7997;SDS011;4044;49.814;7.828;2024-03-25T11:45:06;3.67;;;2.05;;
7997;SDS011;4044;49.814;7.828;2024-03-25T11:47:33;2.78;;;2.03;;
7997;SDS011;4044;49.814;7.828;2024-03-25T11:49:58;5.05;;;2.40;;
7997;SDS011;4044;49.814;7.828;2024-03-25T11:52:29;2.30;;;1.80;;
7997;SDS011;4044;49.814;7.828;2024-03-25T11:54:55;3.67;;;1.95;;
7997;SDS011;4044;49.814;7.828;2024-03-25T11:57:21;5.13;;;2.17;;
7997;SDS011;4044;49.814;7.828;2024-03-25T11:59:47;4.10;;;1.80;;
7997;SDS011;4044;49.814;7.828;2024-03-25T12:02:15;2.08;;;1.77;;
7997;SDS011;4044;49.814;7.828;2024-03-25T12:04:44;4.55;;;2.25;;
7997;SDS011;4044;49.814;7.828;2024-03-25T12:07:16;2.40;;;2.00;;
7997;SDS011;4044;49.814;7.828;2024-03-25T12:09:41;3.15;;;2.00;;
7997;SDS011;4044;49.814;7.828;2024-03-25T12:12:26;2.53;;;1.70;;
7997;SDS011;4044;49.814;7.828;2024-03-25T12:14:52;2.65;;;1.80;;
7997;SDS011;4044;49.814;7.828;2024-03-25T12:17:18;1.98;;;1.70;;
7997;SDS011;4044;49.814;7.828;2024-03-25T12:22:31;2.92;;;2.00;;
7997;SDS011;4044;49.814;7.828;2024-03-25T12:25:00;3.25;;;1.80;;
7997;SDS011;4044;49.814;7.828;2024-03-25T12:27:28;1.67;;;1.50;;
7997;SDS011;4044;49.814;7.828;2024-03-25T12:30:00;1.60;;;1.50;;
7997;SDS011;4044;49.814;7.828;2024-03-25T12:32:31;1.90;;;1.80;;
7997;SDS011;4044;49.814;7.828;2024-03-25T12:34:57;2.20;;;2.00;;
7997;SDS011;4044;49.814;7.828;2024-03-25T12:37:23;1.67;;;1.58;;
7997;SDS011;4044;49.814;7.828;2024-03-25T12:39:50;1.58;;;1.48;;
7997;SDS011;4044;49.814;7.828;2024-03-25T12:42:16;1.85;;;1.50;;
7997;SDS011;4044;49.814;7.828;2024-03-25T12:44:42;1.80;;;1.65;;
7997;SDS011;4044;49.814;7.828;2024-03-25T12:47:07;2.08;;;1.65;;
7997;SDS011;4044;49.814;7.828;2024-03-25T12:49:33;3.60;;;2.05;;
7997;SDS011;4044;49.814;7.828;2024-03-25T12:51:58;2.08;;;1.60;;
7997;SDS011;4044;49.814;7.828;2024-03-25T12:54:24;2.33;;;1.80;;
7997;SDS011;4044;49.814;7.828;2024-03-25T12:56:49;2.00;;;1.80;;
7997;SDS011;4044;49.814;7.828;2024-03-25T12:59:15;1.70;;;1.60;;
7997;SDS011;4044;49.814;7.828;2024-03-25T13:01:40;3.65;;;1.70;;
7997;SDS011;4044;49.814;7.828;2024-03-25T13:04:06;2.22;;;1.95;;
7997;SDS011;4044;49.814;7.828;2024-03-25T13:06:32;4.32;;;2.30;;
7997;SDS011;4044;49.814;7.828;2024-03-25T13:08:57;2.85;;;2.00;;
7997;SDS011;4044;49.814;7.828;2024-03-25T13:11:23;3.40;;;2.30;;
7997;SDS011;4044;49.814;7.828;2024-03-25T13:13:48;2.42;;;2.08;;
7997;SDS011;4044;49.814;7.828;2024-03-25T13:16:14;2.72;;;2.22;;
7997;SDS011;4044;49.814;7.828;2024-03-25T13:18:39;2.88;;;2.13;;
7997;SDS011;4044;49.814;7.828;2024-03-25T13:21:05;2.58;;;2.13;;
7997;SDS011;4044;49.814;7.828;2024-03-25T13:23:30;3.03;;;2.38;;
7997;SDS011;4044;49.814;7.828;2024-03-25T13:25:56;3.25;;;2.33;;
7997;SDS011;4044;49.814;7.828;2024-03-25T13:28:21;3.38;;;2.03;;
7997;SDS011;4044;49.814;7.828;2024-03-25T13:30:47;2.72;;;2.00;;
7997;SDS011;4044;49.814;7.828;2024-03-25T13:33:12;2.33;;;2.10;;
7997;SDS011;4044;49.814;7.828;2024-03-25T13:35:38;3.17;;;1.80;;
7997;SDS011;4044;49.814;7.828;2024-03-25T13:38:03;2.10;;;1.90;;
7997;SDS011;4044;49.814;7.828;2024-03-25T13:40:29;1.70;;;1.60;;
7997;SDS011;4044;49.814;7.828;2024-03-25T13:42:54;4.10;;;2.08;;
7997;SDS011;4044;49.814;7.828;2024-03-25T13:45:20;2.63;;;1.70;;
7997;SDS011;4044;49.814;7.828;2024-03-25T13:47:45;1.92;;;1.80;;
7997;SDS011;4044;49.814;7.828;2024-03-25T13:50:11;2.13;;;1.98;;
7997;SDS011;4044;49.814;7.828;2024-03-25T13:52:36;3.55;;;2.00;;
7997;SDS011;4044;49.814;7.828;2024-03-25T13:55:02;2.28;;;2.03;;
7997;SDS011;4044;49.814;7.828;2024-03-25T13:57:28;2.42;;;1.80;;
7997;SDS011;4044;49.814;7.828;2024-03-25T13:59:53;2.10;;;1.90;;
7997;SDS011;4044;49.814;7.828;2024-03-25T14:02:19;2.58;;;1.85;;
7997;SDS011;4044;49.814;7.828;2024-03-25T14:04:45;2.08;;;1.70;;
7997;SDS011;4044;49.814;7.828;2024-03-25T14:07:10;3.67;;;2.05;;
7997;SDS011;4044;49.814;7.828;2024-03-25T14:09:36;5.25;;;2.35;;
7997;SDS011;4044;49.814;7.828;2024-03-25T14:12:02;3.20;;;2.10;;
7997;SDS011;4044;49.814;7.828;2024-03-25T14:14:28;3.85;;;2.28;;
7997;SDS011;4044;49.814;7.828;2024-03-25T14:16:54;2.70;;;2.40;;
7997;SDS011;4044;49.814;7.828;2024-03-25T14:19:19;2.45;;;2.25;;
7997;SDS011;4044;49.814;7.828;2024-03-25T14:21:45;3.67;;;2.45;;
7997;SDS011;4044;49.814;7.828;2024-03-25T14:24:13;6.65;;;2.95;;
7997;SDS011;4044;49.814;7.828;2024-03-25T14:26:38;3.53;;;2.67;;
7997;SDS011;4044;49.814;7.828;2024-03-25T14:29:04;4.20;;;2.63;;
7997;SDS011;4044;49.814;7.828;2024-03-25T14:31:29;3.67;;;2.72;;
7997;SDS011;4044;49.814;7.828;2024-03-25T14:33:55;3.47;;;2.97;;
7997;SDS011;4044;49.814;7.828;2024-03-25T14:36:21;4.35;;;2.63;;
7997;SDS011;4044;49.814;7.828;2024-03-25T14:38:47;4.68;;;2.85;;
7997;SDS011;4044;49.814;7.828;2024-03-25T14:41:13;3.67;;;2.30;;
7997;SDS011;4044;49.814;7.828;2024-03-25T14:43:43;3.10;;;1.95;;
7997;SDS011;4044;49.814;7.828;2024-03-25T14:46:08;3.33;;;2.20;;
7997;SDS011;4044;49.814;7.828;2024-03-25T14:48:34;2.92;;;2.70;;
7997;SDS011;4044;49.814;7.828;2024-03-25T14:50:59;4.10;;;2.75;;
7997;SDS011;4044;49.814;7.828;2024-03-25T14:53:25;2.50;;;2.28;;
7997;SDS011;4044;49.814;7.828;2024-03-25T14:55:51;2.38;;;2.17;;
7997;SDS011;4044;49.814;7.828;2024-03-25T14:58:16;3.15;;;2.42;;
7997;SDS011;4044;49.814;7.828;2024-03-25T15:00:42;2.75;;;2.10;;
7997;SDS011;4044;49.814;7.828;2024-03-25T15:03:08;2.35;;;2.05;;
7997;SDS011;4044;49.814;7.828;2024-03-25T15:05:34;3.80;;;2.40;;
7997;SDS011;4044;49.814;7.828;2024-03-25T15:08:00;2.40;;;2.20;;
7997;SDS011;4044;49.814;7.828;2024-03-25T15:10:26;3.97;;;2.42;;
7997;SDS011;4044;49.814;7.828;2024-03-25T15:12:52;3.92;;;2.65;;